createdAt,value
2023-06-07T00:00:30.989Z,37.80
2023-06-07T00:01:30.986Z,37.84
2023-06-07T00:02:42.938Z,37.84
2023-06-07T00:03:32.504Z,37.86
2023-06-07T00:04:31.159Z,37.89
2023-06-07T00:05:31.098Z,37.83
2023-06-07T00:06:31.111Z,37.81
2023-06-07T00:07:31.087Z,37.89
2023-06-07T00:08:31.092Z,37.86
2023-06-07T00:09:31.104Z,37.84
2023-06-07T00:10:31.121Z,37.84
2023-06-07T00:11:31.136Z,37.88
2023-06-07T00:12:31.227Z,37.82
2023-06-07T00:13:31.159Z,37.86
2023-06-07T00:14:31.234Z,37.80
2023-06-07T00:15:31.294Z,37.84
2023-06-07T00:16:31.338Z,37.90
2023-06-07T00:17:31.452Z,37.90
2023-06-07T00:18:31.420Z,37.90
2023-06-07T00:19:31.391Z,37.86
2023-06-07T00:20:31.433Z,37.75
2023-06-07T00:21:31.528Z,37.78
2023-06-07T00:22:31.521Z,37.81
2023-06-07T00:23:31.607Z,37.85
2023-06-07T00:24:31.633Z,37.81
2023-06-07T00:25:31.630Z,37.82
2023-06-07T00:26:31.617Z,37.80
2023-06-07T00:27:31.668Z,37.80
2023-06-07T00:28:31.691Z,37.82
2023-06-07T00:29:31.735Z,37.86
2023-06-07T00:30:31.725Z,37.81
2023-06-07T00:31:31.810Z,37.71
2023-06-07T00:32:31.796Z,37.75
2023-06-07T00:33:31.834Z,37.73
2023-06-07T00:34:31.837Z,37.66
2023-06-07T00:35:31.875Z,37.70
2023-06-07T00:36:31.868Z,37.74
2023-06-07T00:37:31.928Z,37.70
2023-06-07T00:38:31.922Z,37.72
2023-06-07T00:39:31.919Z,37.77
2023-06-07T00:40:31.947Z,37.69
2023-06-07T00:41:31.961Z,37.77
2023-06-07T00:42:31.965Z,37.81
2023-06-07T00:43:32.050Z,37.77
2023-06-07T00:44:31.994Z,37.78
2023-06-07T00:45:32.032Z,37.77
2023-06-07T00:46:32.039Z,37.74
2023-06-07T00:47:32.186Z,37.78
2023-06-07T00:48:32.151Z,37.75
2023-06-07T00:49:32.130Z,37.62
2023-06-07T00:50:32.194Z,37.63
2023-06-07T00:51:32.195Z,37.69
2023-06-07T00:52:32.242Z,37.59
2023-06-07T00:53:32.266Z,37.62
2023-06-07T00:54:32.332Z,37.62
2023-06-07T00:55:32.319Z,37.59
2023-06-07T00:56:32.327Z,37.58
2023-06-07T00:57:32.349Z,37.54
2023-06-07T00:58:32.420Z,37.59
2023-06-07T00:59:32.384Z,37.61
2023-06-07T01:00:32.480Z,37.61
2023-06-07T01:01:32.495Z,37.64
2023-06-07T01:02:32.429Z,37.61
2023-06-07T01:03:32.631Z,37.66
2023-06-07T01:04:32.420Z,37.75
2023-06-07T01:05:32.453Z,37.66
2023-06-07T01:06:32.419Z,37.70
2023-06-07T01:07:32.460Z,37.70
2023-06-07T01:08:32.462Z,37.62
2023-06-07T01:09:32.459Z,37.58
2023-06-07T01:10:32.534Z,37.63
2023-06-07T01:11:32.554Z,37.59
2023-06-07T01:12:32.605Z,37.62
2023-06-07T01:13:32.625Z,37.64
2023-06-07T01:14:32.640Z,37.70
2023-06-07T01:15:32.673Z,37.73
2023-06-07T01:16:32.708Z,37.64
2023-06-07T01:17:32.726Z,37.61
2023-06-07T01:18:32.697Z,37.59
2023-06-07T01:19:32.732Z,37.66
2023-06-07T01:20:32.733Z,37.56
2023-06-07T01:21:32.786Z,37.55
2023-06-07T01:22:32.725Z,37.52
2023-06-07T01:23:32.853Z,37.51
2023-06-07T01:24:32.752Z,37.54
2023-06-07T01:25:32.749Z,37.47
2023-06-07T01:26:32.775Z,37.42
2023-06-07T01:27:32.759Z,37.37
2023-06-07T01:28:32.752Z,37.46
2023-06-07T01:29:32.785Z,37.39
2023-06-07T01:30:32.842Z,37.47
2023-06-07T01:31:32.815Z,37.42
2023-06-07T01:32:32.854Z,37.42
2023-06-07T01:33:32.818Z,37.43
2023-06-07T01:34:32.830Z,37.39
2023-06-07T01:35:32.839Z,37.41
2023-06-07T01:36:32.861Z,37.45
2023-06-07T01:37:32.862Z,37.45
2023-06-07T01:38:32.850Z,37.37
2023-06-07T01:39:32.864Z,37.50
2023-06-07T01:40:32.858Z,37.55
2023-06-07T01:41:32.897Z,37.57
2023-06-07T01:42:32.890Z,37.47
2023-06-07T01:43:32.881Z,37.60
2023-06-07T01:44:32.899Z,37.55
2023-06-07T01:45:32.918Z,37.60
2023-06-07T01:46:33.010Z,37.64
2023-06-07T01:47:32.946Z,37.71
2023-06-07T01:48:32.964Z,37.52
2023-06-07T01:49:32.930Z,37.56
2023-06-07T01:50:32.915Z,37.58
2023-06-07T01:51:32.944Z,37.58
2023-06-07T01:52:32.936Z,37.54
2023-06-07T01:53:32.920Z,37.47
2023-06-07T01:54:32.940Z,37.51
2023-06-07T01:55:32.972Z,37.54
2023-06-07T01:56:32.952Z,37.50
2023-06-07T01:57:32.989Z,37.50
2023-06-07T01:58:32.980Z,37.51
2023-06-07T01:59:33.014Z,37.54
2023-06-07T02:00:33.006Z,37.51
2023-06-07T02:01:33.127Z,37.48
2023-06-07T02:02:33.052Z,37.45
2023-06-07T02:03:33.023Z,37.34
2023-06-07T02:04:33.026Z,37.41
2023-06-07T02:05:33.056Z,37.29
2023-06-07T02:06:33.079Z,37.50
2023-06-07T02:07:33.065Z,37.61
2023-06-07T02:08:33.116Z,37.54
2023-06-07T02:09:33.089Z,37.64
2023-06-07T02:10:33.126Z,37.70
2023-06-07T02:11:33.174Z,37.55
2023-06-07T02:12:33.117Z,37.38
2023-06-07T02:13:33.122Z,37.49
2023-06-07T02:14:33.145Z,37.59
2023-06-07T02:15:33.138Z,37.56
2023-06-07T02:16:33.176Z,37.41
2023-06-07T02:17:33.435Z,37.51
2023-06-07T02:18:33.159Z,37.37
2023-06-07T02:19:33.200Z,37.57
2023-06-07T02:20:33.198Z,37.50
2023-06-07T02:21:33.219Z,37.41
2023-06-07T02:22:33.240Z,37.43
2023-06-07T02:23:33.284Z,37.28
2023-06-07T02:24:33.251Z,37.36
2023-06-07T02:25:33.272Z,37.37
2023-06-07T02:26:33.279Z,37.48
2023-06-07T02:27:33.274Z,37.41
2023-06-07T02:28:33.379Z,37.47
2023-06-07T02:29:33.339Z,37.51
2023-06-07T02:30:33.324Z,37.40
2023-06-07T02:31:33.387Z,37.39
2023-06-07T02:32:33.371Z,37.30
2023-06-07T02:33:33.360Z,37.35
2023-06-07T02:34:33.397Z,37.34
2023-06-07T02:35:33.404Z,37.38
2023-06-07T02:36:33.410Z,37.30
2023-06-07T02:37:33.429Z,37.45
2023-06-07T02:38:33.425Z,37.33
2023-06-07T02:39:33.463Z,37.18
2023-06-07T02:40:33.464Z,37.18
2023-06-07T02:41:33.495Z,37.22
2023-06-07T02:42:33.492Z,37.30
2023-06-07T02:43:33.512Z,37.26
2023-06-07T02:44:33.505Z,37.40
2023-06-07T02:45:33.548Z,37.43
2023-06-07T02:46:33.534Z,37.16
2023-06-07T02:47:33.586Z,37.30
2023-06-07T02:48:33.556Z,37.41
2023-06-07T02:49:33.565Z,37.39
2023-06-07T02:50:33.580Z,37.36
2023-06-07T02:51:33.590Z,37.22
2023-06-07T02:52:33.580Z,37.36
2023-06-07T02:53:33.647Z,37.27
2023-06-07T02:54:33.643Z,37.12
2023-06-07T02:55:33.691Z,37.18
2023-06-07T02:56:33.669Z,37.26
2023-06-07T02:57:33.680Z,37.24
2023-06-07T02:58:33.692Z,37.14
2023-06-07T02:59:33.709Z,37.19
2023-06-07T03:00:33.749Z,37.27
2023-06-07T03:01:33.935Z,37.12
2023-06-07T03:02:33.851Z,37.15
2023-06-07T03:03:33.880Z,37.09
2023-06-07T03:04:33.811Z,37.27
2023-06-07T03:05:33.814Z,37.32
2023-06-07T03:06:33.863Z,37.30
2023-06-07T03:07:33.834Z,37.17
2023-06-07T03:08:33.858Z,37.21
2023-06-07T03:09:33.897Z,37.30
2023-06-07T03:10:33.911Z,37.32
2023-06-07T03:11:33.923Z,37.32
2023-06-07T03:12:33.886Z,37.25
2023-06-07T03:13:33.891Z,37.11
2023-06-07T03:14:33.943Z,37.20
2023-06-07T03:15:33.981Z,37.20
2023-06-07T03:16:33.999Z,37.27
2023-06-07T03:17:33.998Z,37.33
2023-06-07T03:18:33.974Z,37.24
2023-06-07T03:19:34.017Z,37.18
2023-06-07T03:20:34.048Z,37.23
2023-06-07T03:21:34.058Z,37.16
2023-06-07T03:22:34.095Z,37.29
2023-06-07T03:23:34.100Z,37.32
2023-06-07T03:24:34.103Z,37.34
2023-06-07T03:25:34.774Z,37.20
2023-06-07T03:26:34.165Z,37.16
2023-06-07T03:27:34.168Z,37.14
2023-06-07T03:28:34.185Z,37.21
2023-06-07T03:29:34.244Z,37.15
2023-06-07T03:30:34.305Z,37.20
2023-06-07T03:31:34.291Z,37.17
2023-06-07T03:32:34.378Z,37.08
2023-06-07T03:33:34.313Z,37.13
2023-06-07T03:34:34.353Z,37.08
2023-06-07T03:35:34.390Z,37.19
2023-06-07T03:36:34.399Z,37.20
2023-06-07T03:37:34.413Z,37.20
2023-06-07T03:38:34.451Z,37.17
2023-06-07T03:39:34.504Z,37.19
2023-06-07T03:40:34.529Z,37.25
2023-06-07T03:41:34.554Z,37.12
2023-06-07T03:42:34.556Z,37.17
2023-06-07T03:43:34.571Z,37.17
2023-06-07T03:44:34.613Z,37.17
2023-06-07T03:45:34.596Z,37.13
2023-06-07T03:46:34.638Z,37.13
2023-06-07T03:47:34.669Z,37.17
2023-06-07T03:48:34.705Z,37.16
2023-06-07T03:49:34.701Z,37.13
2023-06-07T03:50:34.708Z,37.11
2023-06-07T03:51:34.746Z,37.15
2023-06-07T03:52:34.786Z,37.17
2023-06-07T03:53:34.788Z,37.08
2023-06-07T03:54:34.795Z,37.17
2023-06-07T03:55:34.821Z,37.08
2023-06-07T03:56:34.902Z,37.11
2023-06-07T03:57:34.848Z,37.08
2023-06-07T03:58:34.868Z,37.23
2023-06-07T03:59:34.912Z,37.11
2023-06-07T04:00:34.894Z,37.11
2023-06-07T04:01:34.907Z,37.10
2023-06-07T04:02:35.040Z,37.10
2023-06-07T04:03:35.056Z,37.15
2023-06-07T04:04:35.010Z,37.14
2023-06-07T04:05:34.971Z,37.22
2023-06-07T04:06:34.995Z,37.16
2023-06-07T04:07:35.004Z,37.18
2023-06-07T04:08:35.015Z,37.18
2023-06-07T04:09:35.025Z,37.15
2023-06-07T04:10:35.021Z,37.18
2023-06-07T04:11:35.040Z,37.20
2023-06-07T04:12:35.050Z,37.19
2023-06-07T04:13:35.083Z,37.24
2023-06-07T04:14:35.062Z,37.08
2023-06-07T04:15:35.105Z,37.24
2023-06-07T04:16:35.139Z,37.20
2023-06-07T04:17:35.160Z,37.18
2023-06-07T04:18:35.161Z,37.15
2023-06-07T04:19:35.139Z,37.24
2023-06-07T04:20:35.143Z,37.30
2023-06-07T04:21:35.181Z,37.35
2023-06-07T04:22:35.194Z,37.28
2023-06-07T04:23:35.233Z,37.30
2023-06-07T04:24:35.207Z,37.18
2023-06-07T04:25:35.230Z,37.14
2023-06-07T04:26:35.250Z,37.23
2023-06-07T04:27:35.288Z,37.13
2023-06-07T04:28:35.282Z,37.20
2023-06-07T04:29:35.307Z,37.23
2023-06-07T04:30:35.300Z,37.28
2023-06-07T04:31:35.526Z,37.20
2023-06-07T04:32:35.364Z,37.30
2023-06-07T04:33:35.335Z,37.18
2023-06-07T04:34:35.362Z,37.17
2023-06-07T04:35:35.367Z,37.17
2023-06-07T04:36:35.364Z,37.27
2023-06-07T04:37:35.419Z,37.28
2023-06-07T04:38:43.352Z,37.36
2023-06-07T04:39:36.465Z,37.33
2023-06-07T04:40:35.456Z,37.25
2023-06-07T04:41:35.492Z,37.22
2023-06-07T04:42:35.475Z,37.19
2023-06-07T04:43:35.534Z,37.19
2023-06-07T04:44:35.521Z,37.18
2023-06-07T04:45:35.503Z,37.19
2023-06-07T04:46:35.610Z,37.27
2023-06-07T04:47:35.565Z,37.31
2023-06-07T04:48:35.600Z,37.34
2023-06-07T04:49:35.559Z,37.33
2023-06-07T04:50:35.531Z,37.46
2023-06-07T04:51:35.599Z,37.30
2023-06-07T04:52:35.572Z,37.47
2023-06-07T04:53:35.599Z,37.68
2023-06-07T04:54:35.598Z,37.76
2023-06-07T04:55:35.655Z,37.85
2023-06-07T04:56:35.583Z,37.93
2023-06-07T04:57:35.597Z,37.95
2023-06-07T04:58:35.593Z,38.00
2023-06-07T04:59:35.736Z,38.05
2023-06-07T05:00:35.614Z,38.12
2023-06-07T05:01:35.678Z,38.19
2023-06-07T05:02:35.689Z,38.24
2023-06-07T05:03:35.635Z,38.27
2023-06-07T05:04:35.642Z,38.30
2023-06-07T05:05:35.694Z,38.39
2023-06-07T05:06:35.696Z,38.39
2023-06-07T05:07:35.663Z,38.41
2023-06-07T05:08:35.702Z,38.54
2023-06-07T05:09:35.774Z,38.51
2023-06-07T05:10:35.719Z,38.71
2023-06-07T05:11:35.736Z,38.88
2023-06-07T05:12:35.722Z,39.09
2023-06-07T05:13:35.756Z,39.56
2023-06-07T05:14:35.826Z,39.68
2023-06-07T05:15:35.840Z,39.96
2023-06-07T05:16:35.894Z,40.15
2023-06-07T05:17:36.074Z,40.42
2023-06-07T05:18:35.932Z,40.60
2023-06-07T05:19:35.962Z,40.90
2023-06-07T05:20:35.958Z,41.18
2023-06-07T05:21:35.997Z,41.28
2023-06-07T05:22:35.998Z,41.49
2023-06-07T05:23:35.992Z,41.65
2023-06-07T05:24:36.009Z,41.84
2023-06-07T05:25:36.013Z,41.85
2023-06-07T05:26:36.069Z,42.13
2023-06-07T05:27:36.074Z,42.21
2023-06-07T05:28:36.074Z,42.21
2023-06-07T05:29:36.109Z,42.18
2023-06-07T05:30:36.154Z,42.18
2023-06-07T05:31:36.154Z,42.07
2023-06-07T05:32:36.179Z,41.98
2023-06-07T05:33:36.151Z,41.76
2023-06-07T05:34:36.161Z,41.59
2023-06-07T05:35:36.157Z,41.44
2023-06-07T05:36:36.362Z,41.32
2023-06-07T05:37:36.218Z,41.09
2023-06-07T05:38:36.203Z,41.02
2023-06-07T05:39:36.233Z,40.95
2023-06-07T05:40:36.246Z,40.96
2023-06-07T05:41:36.254Z,41.11
2023-06-07T05:42:36.264Z,41.37
2023-06-07T05:43:36.246Z,41.55
2023-06-07T05:44:36.257Z,41.52
2023-06-07T05:45:36.340Z,41.82
2023-06-07T05:46:36.804Z,41.50
2023-06-07T05:47:36.447Z,41.33
2023-06-07T05:48:36.418Z,41.22
2023-06-07T05:49:39.297Z,41.20
2023-06-07T05:50:36.466Z,41.12
2023-06-07T05:51:36.492Z,40.90
2023-06-07T05:52:36.499Z,40.58
2023-06-07T05:53:36.511Z,40.69
2023-06-07T05:54:36.496Z,40.66
2023-06-07T05:55:36.455Z,40.60
2023-06-07T05:56:36.518Z,40.62
2023-06-07T05:57:36.475Z,40.67
2023-06-07T05:58:36.482Z,40.56
2023-06-07T05:59:36.492Z,40.85
2023-06-07T06:00:36.479Z,40.87
2023-06-07T06:01:36.502Z,41.14
2023-06-07T06:02:36.543Z,41.59
2023-06-07T06:03:36.496Z,41.88
2023-06-07T06:04:36.558Z,42.16
2023-06-07T06:05:36.527Z,42.28
2023-06-07T06:06:36.526Z,42.24
2023-06-07T06:07:36.568Z,42.62
2023-06-07T06:08:36.581Z,42.64
2023-06-07T06:09:36.587Z,42.90
2023-06-07T06:10:36.583Z,43.17
2023-06-07T06:11:36.614Z,43.32
2023-06-07T06:12:36.604Z,43.42
2023-06-07T06:13:36.630Z,43.62
2023-06-07T06:14:36.597Z,43.64
2023-06-07T06:15:36.597Z,43.82
2023-06-07T06:16:36.661Z,43.88
2023-06-07T06:17:36.667Z,43.96
2023-06-07T06:18:36.606Z,43.83
2023-06-07T06:19:36.596Z,43.95
2023-06-07T06:20:36.611Z,43.82
2023-06-07T06:21:36.693Z,43.97
2023-06-07T06:22:36.666Z,44.05
2023-06-07T06:23:36.667Z,44.15
2023-06-07T06:24:36.634Z,44.20
2023-06-07T06:25:36.659Z,44.25
2023-06-07T06:26:36.660Z,44.28
2023-06-07T06:27:36.682Z,44.25
2023-06-07T06:28:36.655Z,44.19
2023-06-07T06:29:36.683Z,44.10
2023-06-07T06:30:36.709Z,44.08
2023-06-07T06:31:36.749Z,44.04
2023-06-07T06:32:36.711Z,43.93
2023-06-07T06:33:36.846Z,43.66
2023-06-07T06:34:36.717Z,43.51
2023-06-07T06:35:36.733Z,43.41
2023-06-07T06:36:36.745Z,43.30
2023-06-07T06:37:36.691Z,43.41
2023-06-07T06:38:36.712Z,43.48
2023-06-07T06:39:36.721Z,43.48
2023-06-07T06:40:36.715Z,43.44
2023-06-07T06:41:36.890Z,43.49
2023-06-07T06:42:36.751Z,43.53
2023-06-07T06:43:36.806Z,43.55
2023-06-07T06:44:36.748Z,43.56
2023-06-07T06:45:36.748Z,43.82
2023-06-07T06:46:36.822Z,43.39
2023-06-07T06:47:36.803Z,43.48
2023-06-07T06:48:36.835Z,43.42
2023-06-07T06:49:36.760Z,43.20
2023-06-07T06:50:36.992Z,43.32
2023-06-07T06:51:36.780Z,43.19
2023-06-07T06:52:36.771Z,43.33
2023-06-07T06:53:36.790Z,43.27
2023-06-07T06:54:36.811Z,43.21
2023-06-07T06:55:36.804Z,43.06
2023-06-07T06:56:36.819Z,42.73
2023-06-07T06:57:36.803Z,42.50
2023-06-07T06:58:36.807Z,42.43
2023-06-07T06:59:36.858Z,42.41
2023-06-07T07:00:36.947Z,42.32
2023-06-07T07:01:36.851Z,42.40
2023-06-07T07:02:36.836Z,42.43
2023-06-07T07:03:36.846Z,42.46
2023-06-07T07:04:36.977Z,42.55
2023-06-07T07:05:37.060Z,42.48
2023-06-07T07:06:36.864Z,42.68
2023-06-07T07:07:36.834Z,42.78
2023-06-07T07:08:36.893Z,43.11
2023-06-07T07:09:36.875Z,43.28
2023-06-07T07:10:36.923Z,43.42
2023-06-07T07:11:36.907Z,43.51
2023-06-07T07:12:36.914Z,43.50
2023-06-07T07:13:36.928Z,43.42
2023-06-07T07:14:36.937Z,43.44
2023-06-07T07:15:36.930Z,43.37
2023-06-07T07:16:39.180Z,43.29
2023-06-07T07:17:36.959Z,43.16
2023-06-07T07:18:36.941Z,43.15
2023-06-07T07:19:37.070Z,43.14
2023-06-07T07:20:36.954Z,43.15
2023-06-07T07:21:37.007Z,43.13
2023-06-07T07:22:36.974Z,42.99
2023-06-07T07:23:37.017Z,42.93
2023-06-07T07:24:37.296Z,42.85
2023-06-07T07:25:37.065Z,42.76
2023-06-07T07:26:37.038Z,42.70
2023-06-07T07:27:37.117Z,42.69
2023-06-07T07:28:37.048Z,42.70
2023-06-07T07:29:37.041Z,42.70
2023-06-07T07:30:37.057Z,42.75
2023-06-07T07:31:37.085Z,42.80
2023-06-07T07:32:37.071Z,42.86
2023-06-07T07:33:37.100Z,43.01
2023-06-07T07:34:38.081Z,43.12
2023-06-07T07:35:37.090Z,43.11
2023-06-07T07:36:37.114Z,43.06
2023-06-07T07:37:37.124Z,43.17
2023-06-07T07:38:37.116Z,43.36
2023-06-07T07:39:37.104Z,45.04
2023-06-07T07:40:37.231Z,42.99
2023-06-07T07:41:37.150Z,42.98
2023-06-07T07:42:37.136Z,43.06
2023-06-07T07:43:38.396Z,43.00
2023-06-07T07:44:37.193Z,42.72
2023-06-07T07:45:37.146Z,42.57
2023-06-07T07:46:37.158Z,42.49
2023-06-07T07:47:37.858Z,42.67
2023-06-07T07:48:37.136Z,42.30
2023-06-07T07:49:37.142Z,42.08
2023-06-07T07:50:37.167Z,42.03
2023-06-07T07:51:37.158Z,41.91
2023-06-07T07:52:37.270Z,42.06
2023-06-07T07:53:37.137Z,42.26
2023-06-07T07:54:37.178Z,42.41
2023-06-07T07:55:37.186Z,42.47
2023-06-07T07:56:37.189Z,42.29
2023-06-07T07:57:37.254Z,42.59
2023-06-07T07:58:37.214Z,42.86
2023-06-07T07:59:37.169Z,42.46
2023-06-07T08:00:37.179Z,42.48
2023-06-07T08:01:37.224Z,42.30
2023-06-07T08:02:37.323Z,42.35
2023-06-07T08:03:37.535Z,42.30
2023-06-07T08:04:37.173Z,42.10
2023-06-07T08:05:37.221Z,42.52
2023-06-07T08:06:37.192Z,42.63
2023-06-07T08:07:37.265Z,42.40
2023-06-07T08:08:37.214Z,42.21
2023-06-07T08:09:37.219Z,42.38
2023-06-07T08:10:37.191Z,42.15
2023-06-07T08:11:37.220Z,42.00
2023-06-07T08:12:37.203Z,42.00
2023-06-07T08:13:37.221Z,42.08
2023-06-07T08:14:37.211Z,42.41
2023-06-07T08:15:37.209Z,42.33
2023-06-07T08:16:37.208Z,42.28
2023-06-07T08:17:37.208Z,42.27
2023-06-07T08:18:37.262Z,42.14
2023-06-07T08:19:37.243Z,42.15
2023-06-07T08:20:37.234Z,42.08
2023-06-07T08:21:37.232Z,41.93
2023-06-07T08:22:37.203Z,41.99
2023-06-07T08:23:37.236Z,41.91
2023-06-07T08:24:37.232Z,42.04
2023-06-07T08:25:37.234Z,42.05
2023-06-07T08:26:37.227Z,42.26
2023-06-07T08:27:37.298Z,42.44
2023-06-07T08:28:37.214Z,42.50
2023-06-07T08:29:37.236Z,42.57
2023-06-07T08:30:37.249Z,42.78
2023-06-07T08:31:37.288Z,42.80
2023-06-07T08:32:37.284Z,42.68
2023-06-07T08:33:37.250Z,42.02
2023-06-07T08:34:37.263Z,42.00
2023-06-07T08:35:37.242Z,42.21
2023-06-07T08:36:37.284Z,42.39
2023-06-07T08:37:37.281Z,41.47
2023-06-07T08:38:37.340Z,41.63
2023-06-07T08:39:37.390Z,41.40
2023-06-07T08:40:37.438Z,41.90
2023-06-07T08:41:37.816Z,42.09
2023-06-07T08:42:37.556Z,42.52
2023-06-07T08:43:37.580Z,42.91
2023-06-07T08:44:37.676Z,43.18
2023-06-07T08:45:40.496Z,42.91
2023-06-07T08:46:37.840Z,43.82
2023-06-07T08:47:37.825Z,43.44
2023-06-07T08:48:37.778Z,44.19
2023-06-07T08:49:37.760Z,44.91
2023-06-07T08:50:37.805Z,44.62
2023-06-07T08:51:37.781Z,44.67
2023-06-07T08:52:37.765Z,43.99
2023-06-07T08:53:37.827Z,43.69
2023-06-07T08:54:37.788Z,43.74
2023-06-07T08:55:37.796Z,43.90
2023-06-07T08:56:37.824Z,43.60
2023-06-07T08:57:38.065Z,43.83
2023-06-07T08:58:37.837Z,43.79
2023-06-07T08:59:37.799Z,43.74
2023-06-07T09:00:37.786Z,43.94
2023-06-07T09:01:37.916Z,43.94
2023-06-07T09:02:37.899Z,44.28
2023-06-07T09:03:38.049Z,44.37
2023-06-07T09:04:37.954Z,44.26
2023-06-07T09:05:38.022Z,44.29
2023-06-07T09:06:38.071Z,44.29
2023-06-07T09:07:38.169Z,44.41
2023-06-07T09:08:38.182Z,44.29
2023-06-07T09:09:38.242Z,44.42
2023-06-07T09:10:38.329Z,44.43
2023-06-07T09:11:38.404Z,44.55
2023-06-07T09:12:38.437Z,44.60
2023-06-07T09:13:38.476Z,44.60
2023-06-07T09:14:38.524Z,45.01
2023-06-07T09:15:38.642Z,45.51
2023-06-07T09:16:38.795Z,45.27
2023-06-07T09:17:38.802Z,45.16
2023-06-07T09:18:38.868Z,45.02
2023-06-07T09:19:38.853Z,45.00
2023-06-07T09:20:38.933Z,44.85
2023-06-07T09:21:39.022Z,44.64
2023-06-07T09:22:39.048Z,44.61
2023-06-07T09:23:39.174Z,44.56
2023-06-07T09:24:39.171Z,44.49
2023-06-07T09:25:39.274Z,44.46
2023-06-07T09:26:39.756Z,44.35
2023-06-07T09:27:39.389Z,44.25
2023-06-07T09:28:39.449Z,44.29
2023-06-07T09:29:39.548Z,44.11
2023-06-07T09:30:39.577Z,44.29
2023-06-07T09:31:39.715Z,44.31
2023-06-07T09:32:39.758Z,44.01
2023-06-07T09:33:39.807Z,43.66
2023-06-07T09:34:39.806Z,43.64
2023-06-07T09:35:39.902Z,44.45
2023-06-07T09:36:40.038Z,44.97
2023-06-07T09:37:40.071Z,45.21
2023-06-07T09:38:40.099Z,45.11
2023-06-07T09:39:40.155Z,44.69
2023-06-07T09:40:40.225Z,46.21
2023-06-07T09:41:40.292Z,45.82
2023-06-07T09:42:40.301Z,45.83
2023-06-07T09:43:40.379Z,46.41
2023-06-07T09:44:40.451Z,46.64
2023-06-07T09:45:40.676Z,46.67
2023-06-07T09:46:40.593Z,46.40
2023-06-07T09:47:40.768Z,45.37
2023-06-07T09:48:40.762Z,46.26
2023-06-07T09:49:40.705Z,46.12
2023-06-07T09:50:40.780Z,46.15
2023-06-07T09:51:40.817Z,45.80
2023-06-07T09:52:40.767Z,45.46
2023-06-07T09:53:40.848Z,45.50
2023-06-07T09:54:40.907Z,45.75
2023-06-07T09:55:40.926Z,45.82
2023-06-07T09:56:40.916Z,45.75
2023-06-07T09:57:40.959Z,45.74
2023-06-07T09:58:41.076Z,45.33
2023-06-07T09:59:41.055Z,44.88
2023-06-07T10:00:41.155Z,44.90
2023-06-07T10:01:41.483Z,44.62
2023-06-07T10:02:41.266Z,44.60
2023-06-07T10:03:41.957Z,44.73
2023-06-07T10:04:41.321Z,45.37
2023-06-07T10:05:41.351Z,45.24
2023-06-07T10:06:41.438Z,45.23
2023-06-07T10:07:41.539Z,45.46
2023-06-07T10:08:41.472Z,45.50
2023-06-07T10:09:41.544Z,45.37
2023-06-07T10:10:41.554Z,45.42
2023-06-07T10:11:41.608Z,45.49
2023-06-07T10:12:41.706Z,45.94
2023-06-07T10:13:41.794Z,45.99
2023-06-07T10:14:41.793Z,46.04
2023-06-07T10:15:41.811Z,46.56
2023-06-07T10:16:41.908Z,46.64
2023-06-07T10:17:41.920Z,46.88
2023-06-07T10:18:41.932Z,46.77
2023-06-07T10:19:42.090Z,46.48
2023-06-07T10:20:42.039Z,46.42
2023-06-07T10:21:42.084Z,45.95
2023-06-07T10:22:42.097Z,46.47
2023-06-07T10:23:42.241Z,46.72
2023-06-07T10:24:42.214Z,45.61
2023-06-07T10:25:42.235Z,45.87
2023-06-07T10:26:42.329Z,46.35
2023-06-07T10:27:42.398Z,46.51
2023-06-07T10:28:42.418Z,46.78
2023-06-07T10:29:42.500Z,46.28
2023-06-07T10:30:42.532Z,46.23
2023-06-07T10:31:42.603Z,46.35
2023-06-07T10:32:42.752Z,46.17
2023-06-07T10:33:42.829Z,45.78
2023-06-07T10:34:42.724Z,45.78
2023-06-07T10:35:42.826Z,46.12
2023-06-07T10:36:42.928Z,45.92
2023-06-07T10:37:42.949Z,46.10
2023-06-07T10:38:43.005Z,46.20
2023-06-07T10:39:43.056Z,45.92
2023-06-07T10:40:43.064Z,45.90
2023-06-07T10:41:43.116Z,45.51
2023-06-07T10:42:43.144Z,45.76
2023-06-07T10:43:43.154Z,45.57
2023-06-07T10:44:43.266Z,45.28
2023-06-07T10:45:43.396Z,44.87
2023-06-07T10:46:43.352Z,45.15
2023-06-07T10:47:43.414Z,44.65
2023-06-07T10:48:43.407Z,44.42
2023-06-07T10:49:43.610Z,44.01
2023-06-07T10:50:43.473Z,43.93
2023-06-07T10:51:43.569Z,44.19
2023-06-07T10:52:43.526Z,44.14
2023-06-07T10:53:43.583Z,44.05
2023-06-07T10:54:43.660Z,43.98
2023-06-07T10:55:43.712Z,44.60
2023-06-07T10:56:43.769Z,44.47
2023-06-07T10:57:43.818Z,44.62
2023-06-07T10:58:43.773Z,44.88
2023-06-07T10:59:43.805Z,44.85
2023-06-07T11:00:43.935Z,44.57
2023-06-07T11:01:43.933Z,45.13
2023-06-07T11:02:44.056Z,45.04
2023-06-07T11:03:44.141Z,44.89
2023-06-07T11:04:44.326Z,45.00
2023-06-07T11:05:44.204Z,45.01
2023-06-07T11:06:44.152Z,44.92
2023-06-07T11:07:44.233Z,44.29
2023-06-07T11:08:44.254Z,44.23
2023-06-07T11:09:44.271Z,44.30
2023-06-07T11:10:44.373Z,44.22
2023-06-07T11:11:44.381Z,44.72
2023-06-07T11:12:44.485Z,44.67
2023-06-07T11:13:44.551Z,44.15
2023-06-07T11:14:44.571Z,43.84
2023-06-07T11:15:44.594Z,43.64
2023-06-07T11:16:44.681Z,43.18
2023-06-07T11:17:44.708Z,42.67
2023-06-07T11:18:44.702Z,42.29
2023-06-07T11:19:44.762Z,42.35
2023-06-07T11:20:44.958Z,42.42
2023-06-07T11:21:44.974Z,42.99
2023-06-07T11:22:44.920Z,43.83
2023-06-07T11:23:45.062Z,43.59
2023-06-07T11:24:46.836Z,42.73
2023-06-07T11:25:45.157Z,42.40
2023-06-07T11:26:45.130Z,42.09
2023-06-07T11:27:45.154Z,40.76
2023-06-07T11:28:45.244Z,41.42
2023-06-07T11:29:45.358Z,41.66
2023-06-07T11:30:45.283Z,42.19
2023-06-07T11:31:45.322Z,43.21
2023-06-07T11:32:45.415Z,43.67
2023-06-07T11:33:45.400Z,43.48
2023-06-07T11:34:45.457Z,44.47
2023-06-07T11:35:45.439Z,44.69
2023-06-07T11:36:45.509Z,44.23
2023-06-07T11:37:45.488Z,44.45
2023-06-07T11:38:45.535Z,44.51
2023-06-07T11:39:45.576Z,44.43
2023-06-07T11:40:45.621Z,43.93
2023-06-07T11:41:48.180Z,43.55
2023-06-07T11:42:45.594Z,42.85
2023-06-07T11:43:45.598Z,42.69
2023-06-07T11:44:45.619Z,41.93
2023-06-07T11:45:45.633Z,41.73
2023-06-07T11:46:45.617Z,42.00
2023-06-07T11:47:45.693Z,41.44
2023-06-07T11:48:45.641Z,42.12
2023-06-07T11:49:45.608Z,42.06
2023-06-07T11:50:45.620Z,42.34
2023-06-07T11:51:45.626Z,42.12
2023-06-07T11:52:45.637Z,42.25
2023-06-07T11:53:45.617Z,42.29
2023-06-07T11:54:45.577Z,42.46
2023-06-07T11:55:45.564Z,43.06
2023-06-07T11:56:45.625Z,42.97
2023-06-07T11:57:45.611Z,43.12
2023-06-07T11:58:45.578Z,42.89
2023-06-07T11:59:45.573Z,42.71
2023-06-07T12:00:45.584Z,42.90
2023-06-07T12:01:45.558Z,42.83
2023-06-07T12:02:45.634Z,42.50
2023-06-07T12:03:45.751Z,42.70
2023-06-07T12:04:45.734Z,42.53
2023-06-07T12:05:45.571Z,42.48
2023-06-07T12:06:45.593Z,42.38
2023-06-07T12:07:45.563Z,42.53
2023-06-07T12:08:45.610Z,42.55
2023-06-07T12:09:45.568Z,42.60
2023-06-07T12:10:45.581Z,42.54
2023-06-07T12:11:45.602Z,42.71
2023-06-07T12:12:45.594Z,42.85
2023-06-07T12:13:45.601Z,42.61
2023-06-07T12:14:45.645Z,42.73
2023-06-07T12:15:45.624Z,42.63
2023-06-07T12:16:45.589Z,42.43
2023-06-07T12:17:45.625Z,42.47
2023-06-07T12:18:45.611Z,42.42
2023-06-07T12:19:45.598Z,42.32
2023-06-07T12:20:45.623Z,42.58
2023-06-07T12:21:45.626Z,42.12
2023-06-07T12:22:45.597Z,41.71
2023-06-07T12:23:45.696Z,41.67
2023-06-07T12:24:45.615Z,41.77
2023-06-07T12:25:45.630Z,42.32
2023-06-07T12:26:45.610Z,42.68
2023-06-07T12:27:45.621Z,42.52
2023-06-07T12:28:45.578Z,42.53
2023-06-07T12:29:45.606Z,42.68
2023-06-07T12:30:45.628Z,42.64
2023-06-07T12:31:45.763Z,42.61
2023-06-07T12:32:45.638Z,42.84
2023-06-07T12:33:45.597Z,42.91
2023-06-07T12:34:45.633Z,43.03
2023-06-07T12:35:45.635Z,43.01
2023-06-07T12:36:45.641Z,42.75
2023-06-07T12:37:45.621Z,43.00
2023-06-07T12:38:45.626Z,43.19
2023-06-07T12:39:45.646Z,43.03
2023-06-07T12:40:45.723Z,43.18
2023-06-07T12:41:45.644Z,43.09
2023-06-07T12:42:45.660Z,43.04
2023-06-07T12:43:45.632Z,42.96
2023-06-07T12:44:45.661Z,42.84
2023-06-07T12:45:45.651Z,42.92
2023-06-07T12:46:45.709Z,42.69
2023-06-07T12:47:47.386Z,42.71
2023-06-07T12:48:45.649Z,42.64
2023-06-07T12:49:45.665Z,42.68
2023-06-07T12:50:45.629Z,42.60
2023-06-07T12:51:45.699Z,42.71
2023-06-07T12:52:45.626Z,42.49